Time;durP1;ratioP1;P1;durP2;ratioP2;P2;SDS_P1;SDS_P2;PMS_P1;PMS_P2;Temp;Humidity;BMP_temperature;BMP_pressure;BME280_temperature;BME280_humidity;BME280_pressure;Samples;Min_cycle;Max_cycle;Signal;HPM_P1;HPM_P2
2022/10/21 00:02:25;;;;;;;0.43;0.43;;;10.20;99.90;;;;;;5067198;28;20079;-81
2022/10/21 00:04:51;;;;;;;1.38;1.33;;;10.20;99.90;;;;;;5052634;28;20036;-82
2022/10/21 00:07:17;;;;;;;0.55;0.55;;;10.20;99.90;;;;;;5051731;28;20041;-81
2022/10/21 00:09:43;;;;;;;0.60;0.60;;;10.20;99.90;;;;;;5051028;28;20532;-82
2022/10/21 00:12:10;;;;;;;0.65;0.65;;;10.20;99.90;;;;;;5049433;28;20073;-80
2022/10/21 00:14:36;;;;;;;0.50;0.50;;;10.20;99.90;;;;;;5088755;28;20041;-80
2022/10/21 00:17:03;;;;;;;0.70;0.70;;;10.20;99.90;;;;;;5068392;28;20450;-80
2022/10/21 00:19:28;;;;;;;0.38;0.38;;;10.20;99.90;;;;;;5070774;28;20445;-81
2022/10/21 00:21:55;;;;;;;0.60;0.60;;;10.10;99.90;;;;;;5049541;28;20142;-80
2022/10/21 00:24:21;;;;;;;0.30;0.30;;;10.10;99.90;;;;;;5071310;28;20436;-81
2022/10/21 00:26:48;;;;;;;0.43;0.43;;;10.20;99.90;;;;;;5050616;28;20044;-81
2022/10/21 00:29:14;;;;;;;0.60;0.60;;;10.10;99.90;;;;;;5052386;28;20055;-81
2022/10/21 00:31:41;;;;;;;1.73;1.67;;;10.10;99.90;;;;;;5071091;28;20036;-81
2022/10/21 00:34:07;;;;;;;0.40;0.40;;;10.20;99.90;;;;;;5061569;28;20044;-81
2022/10/21 00:36:33;;;;;;;0.30;0.30;;;10.20;99.90;;;;;;5086669;28;20093;-81
2022/10/21 00:38:58;;;;;;;0.70;0.70;;;10.20;99.90;;;;;;5044169;28;20128;-81
2022/10/21 00:41:24;;;;;;;1.10;1.08;;;10.20;99.90;;;;;;5072202;28;20063;-80
2022/10/21 00:43:59;;;;;;;0.40;0.40;;;10.40;99.90;;;;;;5071410;28;20044;-80
2022/10/21 00:46:39;;;;;;;0.52;0.52;;;10.30;99.90;;;;;;5072908;28;20043;-80
2022/10/21 00:49:23;;;;;;;0.60;0.60;;;10.30;99.90;;;;;;5054119;28;20127;-80
2022/10/21 00:51:54;;;;;;;0.40;0.40;;;10.30;99.90;;;;;;5072932;28;20101;-81
2022/10/21 00:54:22;;;;;;;0.60;0.60;;;10.30;99.90;;;;;;5070067;28;20040;-80
2022/10/21 00:56:51;;;;;;;1.27;0.60;;;10.20;99.90;;;;;;5075681;28;20044;-81
2022/10/21 00:59:19;;;;;;;0.50;0.50;;;10.20;99.90;;;;;;5072814;28;20520;-81
2022/10/21 01:01:46;;;;;;;0.88;0.88;;;10.20;99.90;;;;;;5053474;28;20154;-79
2022/10/21 01:04:12;;;;;;;0.40;0.40;;;10.20;99.90;;;;;;5073479;28;20044;-80
2022/10/21 01:06:39;;;;;;;0.45;0.45;;;10.30;99.90;;;;;;5074548;28;20042;-80
2022/10/21 01:09:05;;;;;;;0.40;0.40;;;10.20;99.90;;;;;;5069073;28;20035;-79
2022/10/21 01:11:44;;;;;;;0.50;0.50;;;10.20;99.90;;;;;;5072307;28;20051;-81
2022/10/21 01:14:10;;;;;;;0.50;0.50;;;10.20;99.90;;;;;;5072184;28;20056;-81
2022/10/21 01:16:56;;;;;;;0.40;0.40;;;10.10;99.90;;;;;;5069946;28;20121;-81
2022/10/21 01:19:40;;;;;;;0.45;0.45;;;10.20;99.90;;;;;;5077336;28;20048;-82
2022/10/21 01:22:34;;;;;;;0.55;0.55;;;10.20;99.90;;;;;;5072831;28;20436;-81
2022/10/21 01:25:24;;;;;;;0.55;0.55;;;10.20;99.90;;;;;;5072168;28;20052;-81
2022/10/21 01:28:17;;;;;;;0.70;0.70;;;10.20;99.90;;;;;;5067673;28;20056;-79
2022/10/21 01:31:17;;;;;;;0.75;0.75;;;10.20;99.90;;;;;;5068637;28;20036;-81
2022/10/21 01:34:01;;;;;;;0.45;0.45;;;10.20;99.90;;;;;;5054430;28;21440;-80
2022/10/21 01:36:48;;;;;;;0.40;0.40;;;10.20;99.90;;;;;;5075400;28;21594;-81
2022/10/21 01:39:23;;;;;;;0.40;0.40;;;10.20;99.90;;;;;;5071975;28;20040;-80
2022/10/21 01:42:25;;;;;;;0.50;0.50;;;10.20;99.90;;;;;;5068882;28;20052;-81
2022/10/21 01:45:10;;;;;;;0.40;0.40;;;10.20;99.90;;;;;;5060199;28;20087;-80
2022/10/21 01:47:42;;;;;;;0.77;0.77;;;10.50;99.90;;;;;;5089436;28;20044;-82
2022/10/21 01:50:14;;;;;;;0.43;0.43;;;10.10;99.90;;;;;;5068895;28;20131;-80
2022/10/21 01:52:43;;;;;;;0.40;0.40;;;10.00;99.90;;;;;;5071212;28;20043;-81
2022/10/21 01:55:19;;;;;;;0.40;0.40;;;10.10;99.90;;;;;;5070224;28;20607;-79
2022/10/21 01:58:02;;;;;;;0.60;0.60;;;10.10;99.90;;;;;;5045676;28;20124;-80
2022/10/21 02:00:32;;;;;;;0.77;0.77;;;10.10;99.90;;;;;;5075110;28;20036;-81
2022/10/21 02:03:01;;;;;;;0.50;0.50;;;10.10;99.90;;;;;;5069806;28;20128;-80
2022/10/21 02:05:30;;;;;;;0.60;0.60;;;10.20;99.90;;;;;;5070128;28;20052;-81
2022/10/21 02:07:57;;;;;;;0.55;0.55;;;10.20;99.90;;;;;;5074978;28;20523;-81
2022/10/21 02:10:26;;;;;;;1.13;1.08;;;10.20;99.90;;;;;;5052432;28;20036;-82
2022/10/21 02:12:55;;;;;;;0.30;0.30;;;10.20;99.90;;;;;;5073079;28;20051;-81
2022/10/21 02:15:24;;;;;;;0.38;0.38;;;10.10;99.90;;;;;;5072431;28;20044;-81
2022/10/21 02:17:57;;;;;;;0.43;0.43;;;10.10;99.90;;;;;;5073491;28;20044;-82
2022/10/21 02:20:26;;;;;;;1.23;0.90;;;10.20;99.90;;;;;;5073808;28;20130;-82
2022/10/21 02:22:58;;;;;;;0.60;0.60;;;10.20;99.90;;;;;;5067457;28;20615;-80
2022/10/21 02:25:28;;;;;;;0.43;0.43;;;10.30;99.90;;;;;;5052792;28;20066;-79
2022/10/21 02:27:55;;;;;;;0.50;0.50;;;10.40;99.90;;;;;;5069469;28;20059;-82
2022/10/21 02:30:21;;;;;;;0.50;0.50;;;10.40;99.90;;;;;;5075605;28;20056;-82
2022/10/21 02:33:16;;;;;;;0.85;0.85;;;10.50;99.90;;;;;;5072714;28;20056;-81
2022/10/21 02:35:56;;;;;;;0.50;0.50;;;10.50;99.90;;;;;;5052984;28;20460;-82
2022/10/21 02:38:34;;;;;;;0.88;0.88;;;10.50;99.90;;;;;;5073307;28;20039;-80
2022/10/21 02:41:02;;;;;;;0.70;0.70;;;10.60;99.90;;;;;;5055229;28;20052;-81
2022/10/21 02:43:33;;;;;;;0.40;0.40;;;10.70;99.90;;;;;;5069003;28;20044;-81
2022/10/21 02:46:04;;;;;;;0.40;0.40;;;10.80;99.90;;;;;;5071941;28;20047;-80
2022/10/21 02:48:32;;;;;;;0.50;0.50;;;10.80;99.90;;;;;;5068324;28;20051;-81
2022/10/21 02:50:59;;;;;;;0.52;0.52;;;10.80;99.90;;;;;;5054779;28;20046;-81
2022/10/21 02:53:26;;;;;;;4.97;0.75;;;10.90;99.90;;;;;;5055595;28;20079;-80
2022/10/21 02:55:54;;;;;;;1.63;0.95;;;10.90;99.90;;;;;;5070214;28;20800;-81
2022/10/21 02:58:20;;;;;;;0.52;0.52;;;10.90;99.90;;;;;;5054815;28;20047;-81
2022/10/21 03:00:46;;;;;;;0.60;0.60;;;10.90;99.90;;;;;;5038881;28;20043;-81
2022/10/21 03:03:11;;;;;;;0.70;0.40;;;11.00;99.90;;;;;;5067178;28;20051;-80
2022/10/21 03:05:37;;;;;;;0.57;0.55;;;11.00;99.90;;;;;;5071722;28;20701;-80
2022/10/21 03:08:03;;;;;;;1.73;0.73;;;11.00;99.90;;;;;;5050119;28;20032;-82
2022/10/21 03:10:30;;;;;;;0.40;0.40;;;11.10;99.90;;;;;;5074031;28;20032;-82
2022/10/21 03:12:56;;;;;;;0.43;0.43;;;11.10;99.90;;;;;;5056238;28;20048;-81
2022/10/21 03:15:21;;;;;;;0.63;0.63;;;11.10;99.90;;;;;;5058080;28;20101;-82
2022/10/21 03:17:47;;;;;;;0.30;0.30;;;11.10;99.90;;;;;;5058383;28;20055;-82
2022/10/21 03:20:16;;;;;;;1.17;1.02;;;11.20;99.90;;;;;;5070699;28;20040;-82
2022/10/21 03:22:43;;;;;;;0.50;0.50;;;11.20;99.90;;;;;;5071810;28;20047;-82
2022/10/21 03:25:09;;;;;;;0.43;0.43;;;11.20;99.90;;;;;;5073445;28;20900;-81
2022/10/21 03:27:35;;;;;;;1.20;1.20;;;11.20;99.90;;;;;;5073616;28;20040;-81
2022/10/21 03:30:04;;;;;;;0.40;0.40;;;11.30;99.90;;;;;;5065179;28;20035;-82
2022/10/21 03:32:30;;;;;;;0.50;0.50;;;11.30;99.90;;;;;;5078756;28;20071;-82
2022/10/21 03:34:55;;;;;;;0.20;0.20;;;11.30;99.90;;;;;;5077517;28;20560;-81
2022/10/21 03:37:21;;;;;;;0.60;0.60;;;11.30;99.90;;;;;;5072280;28;20382;-82
2022/10/21 03:39:47;;;;;;;0.35;0.35;;;11.40;99.90;;;;;;5074243;28;20393;-82
2022/10/21 03:42:12;;;;;;;0.45;0.45;;;11.40;99.90;;;;;;5074896;28;20056;-84
2022/10/21 03:44:39;;;;;;;0.20;0.20;;;11.40;99.90;;;;;;5078998;28;20068;-83
2022/10/21 03:47:05;;;;;;;0.50;0.50;;;11.40;99.90;;;;;;5077963;28;20048;-82
2022/10/21 03:49:31;;;;;;;0.50;0.50;;;11.30;99.90;;;;;;5062309;28;20031;-82
2022/10/21 03:51:56;;;;;;;0.40;0.40;;;11.30;99.90;;;;;;5075325;28;20108;-81
2022/10/21 03:54:22;;;;;;;0.35;0.35;;;11.30;99.90;;;;;;5078988;28;20051;-83
2022/10/21 03:56:51;;;;;;;0.32;0.32;;;11.20;99.90;;;;;;5074053;28;20040;-82
2022/10/21 03:59:17;;;;;;;0.40;0.40;;;11.20;99.90;;;;;;5075018;28;20148;-82
2022/10/21 04:01:43;;;;;;;0.30;0.30;;;11.20;99.90;;;;;;5069744;28;20134;-82
2022/10/21 04:04:09;;;;;;;0.30;0.30;;;11.10;99.90;;;;;;5081818;28;20052;-82
2022/10/21 04:06:35;;;;;;;0.32;0.32;;;11.10;99.90;;;;;;5059362;28;20044;-81
2022/10/21 04:09:02;;;;;;;0.35;0.35;;;11.10;99.90;;;;;;5047020;28;20044;-82
2022/10/21 04:11:28;;;;;;;0.40;0.40;;;11.10;99.90;;;;;;5079730;28;20572;-82
2022/10/21 04:13:53;;;;;;;0.40;0.40;;;11.10;99.90;;;;;;5044402;28;20054;-82
2022/10/21 04:16:21;;;;;;;0.32;0.32;;;11.00;99.90;;;;;;5062503;28;20879;-83
2022/10/21 04:18:47;;;;;;;0.30;0.30;;;11.00;99.90;;;;;;5078545;28;20439;-82
2022/10/21 04:21:13;;;;;;;0.60;0.60;;;11.10;99.90;;;;;;5061873;28;20461;-83
2022/10/21 04:23:39;;;;;;;0.30;0.30;;;11.10;99.90;;;;;;5078850;28;20040;-84
2022/10/21 04:26:07;;;;;;;0.40;0.40;;;11.10;99.90;;;;;;5078233;28;20048;-82
2022/10/21 04:28:35;;;;;;;0.35;0.35;;;11.10;99.90;;;;;;5079501;28;20043;-82
2022/10/21 04:31:02;;;;;;;0.43;0.43;;;11.10;99.90;;;;;;5080931;28;20085;-81
2022/10/21 04:33:27;;;;;;;0.38;0.38;;;11.00;99.90;;;;;;5076379;28;20520;-81
2022/10/21 04:35:54;;;;;;;0.28;0.28;;;11.00;99.90;;;;;;5055559;28;20051;-82
2022/10/21 04:38:21;;;;;;;0.30;0.30;;;10.90;99.90;;;;;;5075035;28;20492;-81
2022/10/21 04:40:53;;;;;;;0.40;0.40;;;10.90;99.90;;;;;;5077493;28;20062;-82
2022/10/21 04:43:19;;;;;;;0.28;0.28;;;10.80;99.90;;;;;;5060879;28;20048;-80
2022/10/21 04:45:50;;;;;;;0.40;0.40;;;10.80;99.90;;;;;;5077460;28;20032;-82
2022/10/21 04:48:22;;;;;;;0.22;0.22;;;10.80;99.90;;;;;;5064271;28;20224;-82
2022/10/21 04:50:55;;;;;;;0.50;0.50;;;10.80;99.90;;;;;;5076944;28;20045;-81
2022/10/21 04:53:22;;;;;;;0.38;0.38;;;10.80;99.90;;;;;;5057064;28;20040;-81
2022/10/21 04:55:52;;;;;;;0.50;0.50;;;10.90;99.90;;;;;;5077228;28;20032;-83
2022/10/21 04:58:19;;;;;;;0.60;0.60;;;10.90;99.90;;;;;;5074925;28;20073;-82
2022/10/21 05:00:45;;;;;;;0.35;0.35;;;11.00;99.90;;;;;;5076903;28;20052;-82
2022/10/21 05:03:14;;;;;;;0.40;0.40;;;10.90;99.90;;;;;;5063505;28;20055;-82
2022/10/21 05:05:40;;;;;;;1.17;1.17;;;11.10;99.90;;;;;;5042173;28;20036;-82
2022/10/21 05:08:06;;;;;;;0.30;0.30;;;11.20;99.90;;;;;;5070777;28;20035;-82
2022/10/21 05:10:32;;;;;;;0.50;0.50;;;11.20;99.90;;;;;;5082073;28;20093;-82
2022/10/21 05:12:58;;;;;;;0.40;0.40;;;11.20;99.90;;;;;;5060738;28;20048;-83
2022/10/21 05:15:25;;;;;;;0.25;0.25;;;11.40;99.90;;;;;;5044311;28;20066;-83
2022/10/21 05:17:51;;;;;;;0.30;0.30;;;11.40;99.90;;;;;;5077055;28;20066;-83
2022/10/21 05:20:17;;;;;;;0.40;0.40;;;11.50;99.90;;;;;;5057114;28;20169;-82
2022/10/21 05:22:43;;;;;;;0.40;0.40;;;11.40;99.90;;;;;;5056883;28;20051;-83
2022/10/21 05:25:09;;;;;;;0.30;0.30;;;11.60;99.90;;;;;;5064489;28;20040;-82
2022/10/21 05:27:34;;;;;;;0.57;0.57;;;11.60;99.90;;;;;;5071819;28;20098;-83
2022/10/21 05:30:00;;;;;;;0.30;0.30;;;11.70;99.90;;;;;;5074051;28;20390;-83
2022/10/21 05:32:26;;;;;;;0.40;0.40;;;11.70;99.90;;;;;;5073774;28;20036;-83
2022/10/21 05:34:51;;;;;;;0.30;0.30;;;11.70;99.90;;;;;;5075203;28;20459;-83
2022/10/21 05:37:17;;;;;;;0.30;0.30;;;11.80;99.90;;;;;;5077166;28;20085;-82
2022/10/21 05:39:43;;;;;;;0.30;0.30;;;11.80;99.90;;;;;;5088238;28;20085;-84
2022/10/21 05:42:08;;;;;;;0.50;0.50;;;11.80;99.90;;;;;;5059185;28;20418;-82
2022/10/21 05:44:34;;;;;;;1.75;0.80;;;11.80;99.90;;;;;;5076226;28;20052;-82
2022/10/21 05:47:00;;;;;;;0.40;0.40;;;11.80;99.90;;;;;;5075161;28;20036;-83
2022/10/21 05:49:25;;;;;;;0.30;0.30;;;11.80;99.90;;;;;;5074418;28;20390;-83
2022/10/21 05:51:51;;;;;;;0.38;0.38;;;11.70;99.90;;;;;;5074423;28;20676;-83
2022/10/21 05:54:17;;;;;;;0.43;0.43;;;11.80;99.90;;;;;;5075835;28;20461;-84
2022/10/21 05:56:42;;;;;;;0.47;0.45;;;11.70;99.90;;;;;;5055108;28;20105;-82
2022/10/21 05:59:09;;;;;;;0.55;0.55;;;11.70;99.90;;;;;;5057749;28;20049;-83
2022/10/21 06:01:35;;;;;;;0.93;0.93;;;11.70;99.90;;;;;;5075896;28;20059;-83
2022/10/21 06:04:01;;;;;;;1.67;0.60;;;11.70;99.90;;;;;;5072702;28;20052;-82
2022/10/21 06:06:26;;;;;;;0.60;0.60;;;11.70;99.90;;;;;;5071857;28;20024;-84
2022/10/21 06:08:52;;;;;;;0.40;0.40;;;11.70;99.90;;;;;;5039410;28;20554;-83
2022/10/21 06:11:18;;;;;;;0.47;0.47;;;11.70;99.90;;;;;;5039079;28;20052;-81
2022/10/21 06:13:45;;;;;;;1.05;1.05;;;11.70;99.90;;;;;;5056386;28;20040;-82
2022/10/21 06:16:11;;;;;;;0.20;0.20;;;11.70;99.90;;;;;;5071959;28;20440;-81
2022/10/21 06:18:38;;;;;;;0.60;0.60;;;11.70;99.90;;;;;;5079490;28;20036;-82
2022/10/21 06:21:04;;;;;;;2.05;1.95;;;11.70;99.90;;;;;;5057449;28;20070;-82
2022/10/21 06:23:30;;;;;;;0.40;0.40;;;11.70;99.90;;;;;;5057090;28;20044;-83
2022/10/21 06:26:05;;;;;;;0.43;0.43;;;11.70;99.90;;;;;;5056974;28;20054;-82
2022/10/21 06:28:33;;;;;;;0.50;0.50;;;11.70;99.90;;;;;;5057037;28;20036;-82
2022/10/21 06:30:59;;;;;;;0.73;0.73;;;11.70;99.90;;;;;;5076688;28;20098;-83
2022/10/21 06:33:25;;;;;;;1.75;0.93;;;11.70;99.90;;;;;;5074831;28;20044;-82
2022/10/21 06:35:52;;;;;;;;;;;11.70;99.90;;;;;;5074792;28;20051;-82
2022/10/21 06:38:18;;;;;;;1.48;0.73;;;11.70;99.90;;;;;;5077300;28;19916;-81
2022/10/21 06:40:44;;;;;;;1.10;0.73;;;11.80;99.90;;;;;;5078233;28;20105;-81
2022/10/21 06:43:10;;;;;;;;;;;11.70;99.90;;;;;;5056560;28;20163;-82
2022/10/21 06:45:36;;;;;;;1.73;1.63;;;11.70;99.90;;;;;;5057205;28;20385;-82
2022/10/21 06:48:03;;;;;;;;;;;11.80;99.90;;;;;;5073151;28;20043;-82
2022/10/21 06:50:29;;;;;;;;;;;11.70;99.90;;;;;;5058729;28;19992;-83
2022/10/21 06:52:55;;;;;;;0.65;0.65;;;11.70;99.90;;;;;;5091280;27;20007;-82
2022/10/21 06:55:20;;;;;;;0.40;0.40;;;11.70;99.90;;;;;;5058892;28;20484;-82
2022/10/21 06:57:46;;;;;;;0.30;0.30;;;11.70;99.90;;;;;;5052391;28;20032;-82
2022/10/21 07:00:13;;;;;;;0.43;0.43;;;11.70;99.90;;;;;;5057133;28;20445;-82
2022/10/21 07:02:38;;;;;;;0.32;0.32;;;11.70;99.90;;;;;;5071013;28;20035;-82
2022/10/21 07:05:05;;;;;;;1.90;0.38;;;11.70;99.90;;;;;;5053027;28;20065;-82
2022/10/21 07:07:30;;;;;;;0.28;0.28;;;11.70;99.90;;;;;;5019886;28;20115;-82
2022/10/21 07:09:56;;;;;;;0.40;0.40;;;11.70;99.90;;;;;;5052953;28;20028;-82
2022/10/21 07:12:24;;;;;;;0.40;0.40;;;11.80;99.90;;;;;;5053942;28;20048;-82
2022/10/21 07:14:49;;;;;;;0.40;0.40;;;11.90;99.90;;;;;;5072425;28;20059;-82
2022/10/21 07:17:16;;;;;;;0.40;0.40;;;11.90;99.90;;;;;;5069777;28;20052;-82
2022/10/21 07:19:41;;;;;;;0.30;0.30;;;12.00;99.90;;;;;;5069973;28;20059;-83
2022/10/21 07:22:07;;;;;;;0.35;0.35;;;12.00;99.90;;;;;;5072374;28;20067;-83
2022/10/21 07:24:33;;;;;;;0.30;0.30;;;12.00;99.90;;;;;;5069978;28;20546;-82
2022/10/21 07:26:59;;;;;;;0.30;0.30;;;12.10;99.90;;;;;;5073265;28;20546;-82
2022/10/21 07:29:24;;;;;;;0.30;0.30;;;12.10;99.90;;;;;;5073424;28;20159;-82
2022/10/21 07:31:50;;;;;;;1.55;1.48;;;12.10;99.90;;;;;;5088815;28;20470;-83
2022/10/21 07:34:16;;;;;;;0.82;0.82;;;12.10;99.90;;;;;;5075744;28;20435;-83
2022/10/21 07:36:51;;;;;;;0.40;0.40;;;12.10;99.90;;;;;;5073174;28;20035;-82
2022/10/21 07:39:19;;;;;;;0.85;0.85;;;12.10;99.90;;;;;;5072700;28;20124;-81
2022/10/21 07:41:48;;;;;;;0.30;0.30;;;12.00;99.90;;;;;;5076102;28;20064;-81
2022/10/21 07:44:15;;;;;;;0.40;0.40;;;12.00;99.90;;;;;;5073337;28;20048;-82
2022/10/21 07:46:43;;;;;;;0.50;0.50;;;11.90;99.90;;;;;;5060636;28;20485;-82
2022/10/21 07:49:10;;;;;;;0.30;0.30;;;11.90;99.90;;;;;;5073260;28;20054;-82
2022/10/21 07:51:36;;;;;;;0.40;0.40;;;11.80;99.90;;;;;;5077013;28;20048;-82
2022/10/21 07:54:01;;;;;;;0.38;0.38;;;11.80;99.90;;;;;;5075375;28;20138;-82
2022/10/21 07:56:31;;;;;;;0.40;0.40;;;11.80;99.90;;;;;;5074014;28;20100;-81
2022/10/21 07:58:57;;;;;;;0.30;0.30;;;11.80;99.90;;;;;;5058600;28;20044;-82
2022/10/21 08:01:23;;;;;;;0.40;0.40;;;11.80;99.90;;;;;;5071594;28;20044;-79
2022/10/21 08:03:50;;;;;;;0.30;0.30;;;11.70;99.90;;;;;;5057550;28;20052;-81
2022/10/21 08:06:24;;;;;;;1.70;1.15;;;11.70;99.90;;;;;;5075510;28;20056;-80
2022/10/21 08:08:50;;;;;;;0.40;0.40;;;11.80;99.90;;;;;;5073565;28;20048;-81
2022/10/21 08:11:21;;;;;;;0.30;0.30;;;11.80;99.90;;;;;;5075457;28;20048;-79
2022/10/21 08:13:47;;;;;;;0.77;0.77;;;11.50;99.90;;;;;;5071579;28;20050;-78
2022/10/21 08:16:13;;;;;;;0.40;0.40;;;11.70;99.90;;;;;;5066654;28;20048;-80
2022/10/21 08:18:38;;;;;;;0.40;0.40;;;11.70;99.90;;;;;;5069741;28;20059;-79
2022/10/21 08:21:04;;;;;;;0.30;0.30;;;11.70;99.90;;;;;;5070687;28;20060;-79
2022/10/21 08:23:30;;;;;;;0.40;0.40;;;11.70;99.90;;;;;;5049331;28;20096;-79
2022/10/21 08:25:57;;;;;;;0.30;0.30;;;11.80;99.90;;;;;;5073057;28;20519;-78
2022/10/21 08:28:25;;;;;;;0.30;0.30;;;11.80;99.90;;;;;;5048599;28;20044;-80
2022/10/21 08:30:51;;;;;;;0.40;0.40;;;11.90;99.90;;;;;;5066852;28;20354;-80
2022/10/21 08:33:17;;;;;;;0.30;0.30;;;12.00;99.90;;;;;;5054653;28;20043;-80
2022/10/21 08:35:43;;;;;;;0.40;0.40;;;12.10;99.90;;;;;;5069614;28;20039;-79
2022/10/21 08:38:09;;;;;;;0.43;0.43;;;12.10;99.90;;;;;;5069614;28;20125;-81
2022/10/21 08:40:43;;;;;;;1.70;1.60;;;12.30;99.90;;;;;;5073218;28;20047;-80
2022/10/21 08:43:21;;;;;;;0.30;0.30;;;12.40;99.90;;;;;;5067799;28;20051;-80
2022/10/21 08:46:24;;;;;;;0.43;0.43;;;12.50;99.90;;;;;;5069724;28;20041;-81
2022/10/21 08:49:02;;;;;;;0.43;0.43;;;12.60;99.90;;;;;;5068073;28;20035;-81
2022/10/21 08:51:39;;;;;;;0.30;0.30;;;12.80;99.90;;;;;;5067930;28;20135;-80
2022/10/21 08:54:11;;;;;;;0.30;0.30;;;12.90;99.90;;;;;;5068183;28;20054;-81
2022/10/21 08:56:37;;;;;;;0.30;0.30;;;13.00;99.90;;;;;;5060393;28;20039;-81
2022/10/21 08:59:02;;;;;;;0.30;0.30;;;13.10;99.90;;;;;;5071110;28;20065;-81
2022/10/21 09:01:45;;;;;;;0.30;0.30;;;13.20;99.90;;;;;;5075085;28;20050;-81
2022/10/21 09:04:20;;;;;;;0.30;0.30;;;13.30;99.90;;;;;;5072200;28;20040;-81
2022/10/21 09:06:56;;;;;;;0.30;0.30;;;13.40;99.90;;;;;;5056893;28;20035;-81
2022/10/21 09:10:11;;;;;;;0.30;0.30;;;13.50;99.90;;;;;;5074267;28;20048;-80
2022/10/21 09:12:57;;;;;;;0.40;0.40;;;13.50;99.90;;;;;;5076885;28;20036;-81
2022/10/21 09:16:13;;;;;;;0.75;0.75;;;13.60;99.90;;;;;;5077978;28;20042;-80
2022/10/21 09:19:06;;;;;;;0.30;0.30;;;13.70;99.90;;;;;;5030335;28;20131;-80
2022/10/21 09:21:51;;;;;;;0.40;0.40;;;13.80;99.90;;;;;;5061977;28;20512;-81
2022/10/21 09:24:23;;;;;;;0.63;0.40;;;13.90;99.90;;;;;;5069360;28;20564;-79
2022/10/21 09:26:51;;;;;;;1.52;1.30;;;14.00;99.90;;;;;;5080101;28;20089;-78
2022/10/21 09:29:25;;;;;;;0.90;0.88;;;14.00;99.90;;;;;;5074037;28;20036;-77
2022/10/21 09:31:51;;;;;;;1.33;1.23;;;14.20;99.90;;;;;;5070234;28;20044;-79
2022/10/21 09:34:21;;;;;;;;;;;14.20;99.90;;;;;;5058439;28;20130;-83
2022/10/21 09:36:49;;;;;;;1.02;0.90;;;14.40;99.90;;;;;;5070740;28;19920;-89
2022/10/21 09:39:31;;;;;;;2.40;1.42;;;14.50;99.90;;;;;;5049679;28;20475;-84
2022/10/21 09:41:58;;;;;;;1.63;1.52;;;14.50;99.90;;;;;;5059125;28;20084;-84
2022/10/21 09:44:24;;;;;;;0.50;0.50;;;14.60;99.90;;;;;;5059488;28;20127;-88
2022/10/21 09:46:52;;;;;;;1.00;1.00;;;14.60;99.90;;;;;;5081114;28;20154;-83
2022/10/21 09:49:31;;;;;;;0.43;0.43;;;14.60;99.90;;;;;;5074737;28;21338;-83
2022/10/21 09:51:59;;;;;;;0.50;0.50;;;14.70;99.90;;;;;;5056087;28;20131;-84
2022/10/21 09:54:30;;;;;;;0.98;0.98;;;14.70;99.90;;;;;;5061953;28;20055;-83
2022/10/21 09:57:09;;;;;;;1.67;1.55;;;14.70;99.90;;;;;;5079833;28;20136;-83
2022/10/21 09:59:48;;;;;;;0.38;0.38;;;14.70;99.90;;;;;;5087450;28;20066;-84
2022/10/21 10:02:15;;;;;;;0.30;0.30;;;14.70;99.90;;;;;;5075269;28;20059;-84
2022/10/21 10:04:40;;;;;;;0.95;0.95;;;14.80;99.90;;;;;;5081967;28;20059;-84
2022/10/21 10:07:24;;;;;;;0.30;0.30;;;14.80;99.90;;;;;;5080568;28;20044;-84
2022/10/21 10:09:50;;;;;;;0.43;0.43;;;15.00;99.90;;;;;;5080819;28;20052;-83
2022/10/21 10:12:21;;;;;;;0.90;0.90;;;15.10;99.90;;;;;;5048948;28;20028;-83
2022/10/21 10:14:47;;;;;;;0.65;0.65;;;15.10;99.90;;;;;;5082533;28;20442;-84
2022/10/21 10:17:38;;;;;;;0.40;0.40;;;15.20;99.90;;;;;;5081151;28;20079;-83
2022/10/21 10:20:04;;;;;;;0.55;0.55;;;15.20;99.90;;;;;;5045250;28;20052;-83
2022/10/21 10:22:36;;;;;;;1.23;1.00;;;15.20;99.90;;;;;;5062228;28;20493;-83
2022/10/21 10:25:11;;;;;;;0.82;0.82;;;15.20;99.90;;;;;;5072563;28;20048;-83
2022/10/21 10:27:58;;;;;;;0.75;0.57;;;15.20;99.90;;;;;;5067810;28;20483;-83
2022/10/21 10:30:25;;;;;;;;;;;15.30;99.90;;;;;;5075252;28;20073;-83
2022/10/21 10:32:53;;;;;;;0.30;0.30;;;15.40;99.90;;;;;;5074772;28;19927;-83
2022/10/21 10:35:32;;;;;;;0.80;0.80;;;15.40;99.90;;;;;;5073470;28;20207;-83
2022/10/21 10:38:01;;;;;;;0.40;0.40;;;15.40;99.90;;;;;;5062333;28;20036;-83
2022/10/21 10:40:41;;;;;;;0.65;0.65;;;15.40;99.90;;;;;;5042609;28;20044;-83
2022/10/21 10:43:27;;;;;;;0.20;0.20;;;15.50;99.90;;;;;;5039203;28;20062;-83
2022/10/21 10:45:57;;;;;;;0.30;0.30;;;15.60;99.90;;;;;;5057190;28;20049;-82
2022/10/21 10:48:41;;;;;;;0.63;0.63;;;15.60;99.90;;;;;;5050715;28;20127;-82
2022/10/21 10:51:32;;;;;;;0.98;0.98;;;15.50;99.90;;;;;;5059910;28;20055;-83
2022/10/21 10:54:19;;;;;;;2.15;1.13;;;15.50;99.90;;;;;;5070462;28;20045;-82
2022/10/21 10:57:12;;;;;;;0.28;0.28;;;15.40;99.90;;;;;;5076841;28;20444;-82
2022/10/21 10:59:51;;;;;;;5.05;1.08;;;15.40;99.90;;;;;;5102395;28;20052;-82
2022/10/21 11:02:28;;;;;;;0.47;0.47;;;15.40;99.90;;;;;;5062009;28;20047;-81
2022/10/21 11:05:12;;;;;;;1.45;0.52;;;15.40;99.90;;;;;;5078252;28;20032;-81
2022/10/21 11:07:52;;;;;;;1.60;0.95;;;15.40;99.90;;;;;;5062541;28;20101;-81
2022/10/21 11:10:45;;;;;;;0.80;0.80;;;15.40;99.90;;;;;;5055783;28;20427;-80
2022/10/21 11:13:16;;;;;;;1.67;0.75;;;15.50;99.90;;;;;;5069944;28;20378;-81
2022/10/21 11:15:54;;;;;;;0.60;0.60;;;15.60;99.90;;;;;;5079772;28;20035;-81
2022/10/21 11:18:54;;;;;;;0.68;0.68;;;15.60;99.90;;;;;;5077049;28;20047;-82
2022/10/21 11:21:48;;;;;;;0.47;0.47;;;15.50;99.90;;;;;;5069734;28;20163;-81
2022/10/21 11:24:37;;;;;;;0.73;0.73;;;15.50;99.90;;;;;;5056435;28;20171;-82
2022/10/21 11:27:16;;;;;;;0.32;0.32;;;15.50;99.90;;;;;;5052807;28;20045;-82
2022/10/21 11:30:01;;;;;;;0.77;0.77;;;15.50;99.90;;;;;;5055896;28;20551;-82
2022/10/21 11:32:38;;;;;;;1.17;1.17;;;15.60;99.90;;;;;;5059966;28;20167;-82
2022/10/21 11:35:16;;;;;;;1.52;0.85;;;15.60;99.90;;;;;;5078125;28;20042;-81
2022/10/21 11:38:06;;;;;;;0.57;0.57;;;15.70;99.90;;;;;;5070420;28;20447;-82
2022/10/21 11:40:40;;;;;;;0.28;0.28;;;15.90;99.90;;;;;;5051357;28;20083;-81
2022/10/21 11:43:20;;;;;;;0.38;0.38;;;16.00;99.90;;;;;;5065328;28;20404;-81
2022/10/21 11:46:09;;;;;;;0.28;0.28;;;16.00;99.90;;;;;;5067794;28;20037;-81
2022/10/21 11:49:03;;;;;;;0.50;0.50;;;16.00;99.90;;;;;;5064062;28;20048;-81
2022/10/21 11:51:43;;;;;;;0.75;0.75;;;16.00;99.90;;;;;;5050401;28;20396;-82
2022/10/21 11:54:28;;;;;;;1.00;0.95;;;16.00;99.90;;;;;;5065113;28;20144;-81
2022/10/21 11:57:03;;;;;;;0.20;0.20;;;15.90;99.90;;;;;;5052912;28;20051;-81
2022/10/21 11:59:34;;;;;;;0.20;0.20;;;16.00;99.90;;;;;;5086628;28;20067;-82
2022/10/21 12:02:20;;;;;;;1.40;0.73;;;15.90;99.90;;;;;;5084934;28;20154;-82
2022/10/21 12:05:04;;;;;;;0.68;0.68;;;15.90;99.90;;;;;;5082760;28;20409;-81
2022/10/21 12:07:48;;;;;;;0.30;0.30;;;15.90;99.90;;;;;;5075660;28;20420;-80
2022/10/21 12:10:29;;;;;;;2.75;1.00;;;15.80;99.90;;;;;;5072746;28;20663;-81
2022/10/21 12:13:16;;;;;;;0.40;0.40;;;15.70;99.90;;;;;;5074627;28;20048;-81
2022/10/21 12:15:47;;;;;;;0.40;0.40;;;15.60;99.90;;;;;;5082210;28;20048;-80
2022/10/21 12:18:20;;;;;;;0.30;0.30;;;15.60;99.90;;;;;;5075494;28;20051;-81
2022/10/21 12:20:51;;;;;;;0.90;0.90;;;15.60;99.90;;;;;;5082494;28;20047;-81
2022/10/21 12:23:27;;;;;;;0.20;0.20;;;15.60;99.90;;;;;;5079459;28;20044;-81
2022/10/21 12:26:37;;;;;;;0.20;0.20;;;15.70;99.90;;;;;;5082778;28;20362;-81
2022/10/21 12:29:19;;;;;;;0.30;0.30;;;15.80;99.90;;;;;;5073662;28;20048;-81
2022/10/21 12:31:54;;;;;;;0.50;0.50;;;15.80;99.90;;;;;;5057755;28;20122;-81
2022/10/21 12:34:22;;;;;;;0.30;0.30;;;15.90;99.90;;;;;;5076940;28;20041;-81
2022/10/21 12:36:50;;;;;;;0.47;0.47;;;15.90;99.90;;;;;;5079405;28;20381;-81
2022/10/21 12:39:34;;;;;;;0.85;0.85;;;15.90;99.90;;;;;;5057428;28;20035;-80
2022/10/21 12:42:16;;;;;;;0.20;0.20;;;15.90;99.90;;;;;;5081413;28;20063;-81
2022/10/21 12:44:47;;;;;;;0.60;0.60;;;15.90;99.90;;;;;;5073046;28;20044;-81
2022/10/21 12:47:33;;;;;;;0.68;0.68;;;15.80;99.90;;;;;;5076961;28;20082;-81
2022/10/21 12:50:30;;;;;;;0.30;0.30;;;15.90;99.90;;;;;;5076869;28;20467;-81
2022/10/21 12:53:11;;;;;;;0.40;0.40;;;16.00;99.90;;;;;;5064078;28;20162;-81
2022/10/21 12:55:39;;;;;;;0.63;0.57;;;15.90;99.90;;;;;;5080769;28;20078;-81
2022/10/21 12:58:25;;;;;;;0.50;0.50;;;16.00;99.90;;;;;;5076381;28;20296;-81
2022/10/21 13:00:56;;;;;;;1.00;1.00;;;15.90;99.90;;;;;;5085819;28;20051;-81
2022/10/21 13:03:44;;;;;;;0.40;0.40;;;15.90;99.90;;;;;;5086090;28;20507;-80
2022/10/21 13:06:11;;;;;;;0.50;0.50;;;15.90;99.90;;;;;;5078254;28;20035;-80
2022/10/21 13:08:37;;;;;;;0.30;0.30;;;15.80;99.90;;;;;;5040762;28;20124;-80
2022/10/21 13:11:05;;;;;;;0.22;0.22;;;15.80;99.90;;;;;;5079414;28;20122;-80
2022/10/21 13:13:34;;;;;;;0.30;0.30;;;15.80;99.90;;;;;;5059803;28;20074;-81